• Join FlightAware (Why Join?)
  • Login
  • US Flag 
05:35AM EDT


 

Airport Tracker/Info


-or-


 

Live Flight TrackerFlight Track Log ✈ EJA339 ✈ 12-May-2013 ✈ KTEB - KHOU

Flight Track Log - Related Links

Times and Time Zones

All times are in EDT time to prevent confusion due to time zone crossing. See the EJA339 flight status page for this flight to view local times or setup timezone preferences in your user account.

Time Position Orientation Groundspeed Altitude Reporting Facility
EDT Latitude Longitude Course Direction KTS MPH feet Rate Location/Type
02:06PM 40.8333 -74.1000 252° West 173 199 1,500  Level New York TRACON
02:07PM 40.8167 -74.1667 252° West 184 212 3,600 2,400 Climbing New York TRACON
02:08PM 40.8167 -74.2500 270° West 242 278 6,300 2,100 Climbing New York TRACON
02:09PM 40.8000 -74.3333 255° West 253 291 7,700 1,500 Climbing New York TRACON
02:11PM 40.8139 -74.4808 277° West 262 302 10,300 2,760 Climbing New York Center
02:12PM 40.6473 -74.7110 252° West  Level FlightAware Approximate
02:12PM 40.7758 -74.5608 238° Southwest 246 283 15,000  Level New York Center
02:13PM 40.7397 -74.6411 239° Southwest 257 296 18,400 2,880 Climbing New York Center
02:14PM 40.7039 -74.7211 239° Southwest 269 310 20,900 2,520 Climbing New York Center
02:15PM 40.6592 -74.8117 237° Southwest 287 330 23,500 2,460 Climbing New York Center
02:16PM 40.6103 -74.9017 234° Southwest 299 344 25,800 2,040 Climbing New York Center
02:17PM 40.5572 -74.9886 231° Southwest 305 351 27,700 1,740 Climbing New York Center
02:18PM 40.5017 -75.0833 232° Southwest 318 366 29,400 1,620 Climbing New York Center
02:19PM 40.4458 -75.1808 233° Southwest 329 379 30,900 1,380 Climbing New York Center
02:20PM 40.3900 -75.2781 233° Southwest 334 384 32,200 1,260 Climbing New York Center
02:21PM 40.3322 -75.3750 232° Southwest 345 397 33,500 1,320 Climbing New York Center
02:22PM 40.2742 -75.4719 232° Southwest 345 397 34,800 1,380 Climbing New York Center
02:23PM 40.2133 -75.5847 235° Southwest 345 397 36,200 1,140 Climbing New York Center
02:24PM 40.1631 -75.6897 238° Southwest 345 397 37,200 960 Climbing New York Center
02:25PM 40.1089 -75.7919 235° Southwest 345 397 38,200 960 Climbing New York Center
02:26PM 40.0564 -75.8964 237° Southwest 345 397 39,200 900 Climbing New York Center
02:27PM 40.0061 -75.9986 237° Southwest 345 397 40,000 360 Climbing New York Center
02:28PM 39.9533 -76.1031 237° Southwest 339 390 40,000  Level New York Center
02:30PM 39.8406 -76.3183 236° Southwest 353 406 40,000  Level Washington Center
02:31PM 39.7858 -76.4286 237° Southwest 365 420 40,000  Level Washington Center
02:32PM 39.7267 -76.5303 233° Southwest 370 426 40,000  Level Washington Center
02:33PM 39.6694 -76.6403 236° Southwest 377 434 40,000  Level Washington Center
02:34PM 39.6100 -76.7553 236° Southwest 377 434 40,000  Level Washington Center
02:35PM 39.5506 -76.8672 235° Southwest 382 440 40,000  Level Washington Center
02:36PM 39.4911 -76.9764 235° Southwest 382 440 40,000  Level Washington Center
02:37PM 39.4128 -77.0664 222° Southwest 382 440 40,000  Level Washington Center
02:38PM 39.3369 -77.1506 221° Southwest 377 434 40,000  Level Washington Center
02:39PM 39.2647 -77.2508 227° Southwest 372 428 40,000  Level Washington Center
02:40PM 39.1944 -77.3483 227° Southwest 372 428 40,000  Level Washington Center
02:41PM 39.1264 -77.4458 228° Southwest 377 434 40,000  Level Washington Center
02:42PM 39.0494 -77.5533 227° Southwest 377 434 40,000  Level Washington Center
02:43PM 38.9856 -77.6397 226° Southwest 372 428 40,000  Level Washington Center
02:44PM 38.9067 -77.7469 227° Southwest 372 428 40,000  Level Washington Center
02:45PM 38.8467 -77.8333 228° Southwest 367 422 40,000  Level Washington Center
02:46PM 38.7675 -77.9453 228° Southwest 374 430 40,000  Level Washington Center
02:47PM 38.6947 -78.0414 226° Southwest 374 430 40,000  Level Washington Center
02:48PM 38.6236 -78.1400 227° Southwest 379 436 40,000  Level Washington Center
02:49PM 38.5528 -78.2386 227° Southwest 379 436 40,000  Level Washington Center
02:50PM 38.4819 -78.3342 227° Southwest 384 442 40,000  Level Washington Center
02:51PM 38.4086 -78.4322 226° Southwest 384 442 40,000  Level Washington Center
02:52PM 38.3397 -78.5275 227° Southwest 384 442 40,000  Level Washington Center
02:53PM 38.2814 -78.6044 226° Southwest 384 442 40,000  Level Washington Center
02:54PM 38.2036 -78.7122 227° Southwest 384 442 40,000  Level Washington Center
02:55PM 38.1322 -78.8069 226° Southwest 384 442 40,000  Level Washington Center
02:56PM 38.0544 -78.9119 227° Southwest 384 442 40,000  Level Washington Center
02:57PM 37.9808 -79.0061 225° Southwest 384 442 40,000  Level Washington Center
02:58PM 37.9092 -79.1028 227° Southwest 384 442 40,000  Level Washington Center
02:59PM 37.8517 -79.2106 236° Southwest 384 442 40,000  Level Washington Center
03:00PM 37.8028 -79.3108 238° Southwest 378 435 40,000  Level Washington Center
03:01PM 37.7514 -79.4186 239° Southwest 378 435 40,000  Level Washington Center
03:02PM 37.6869 -79.5414 236° Southwest 378 435 40,000  Level Washington Center
03:03PM 37.6356 -79.6408 237° Southwest 384 442 40,000  Level Washington Center
03:04PM 37.5753 -79.7608 238° Southwest 384 442 40,000  Level Washington Center
03:05PM 37.5256 -79.8656 239° Southwest 386 444 40,000  Level Washington Center
03:06PM 37.4675 -79.9747 236° Southwest 391 450 40,000  Level Washington Center
03:07PM 37.4133 -80.0842 238° Southwest 386 444 40,000  Level Washington Center
03:08PM 37.3475 -80.2067 236° Southwest 385 443 40,000  Level Atlanta Center
03:09PM 37.2925 -80.3111 237° Southwest 385 443 40,000  Level Atlanta Center
03:10PM 37.2353 -80.4233 237° Southwest 385 443 40,000  Level Atlanta Center
03:11PM 37.1800 -80.5300 237° Southwest 379 436 40,000  Level Atlanta Center
03:12PM 37.1189 -80.6500 237° Southwest 379 436 40,000  Level Atlanta Center
03:13PM 37.0678 -80.7639 241° Southwest 379 436 40,000  Level Atlanta Center
03:14PM 37.0228 -80.8803 244° Southwest 379 436 40,000  Level Atlanta Center
03:15PM 36.9819 -80.9986 247° West 374 430 40,000  Level Atlanta Center
03:16PM 36.9469 -81.0989 246° West 369 425 40,000  Level Atlanta Center
03:17PM 36.9039 -81.2172 246° West 369 425 40,000  Level Atlanta Center
03:18PM 36.8625 -81.3328 246° West 364 419 40,000  Level Atlanta Center
03:19PM 36.8192 -81.4483 245° Southwest 364 419 40,000  Level Atlanta Center
03:20PM 36.7819 -81.5636 248° West 364 419 40,000  Level Atlanta Center
03:21PM 36.7383 -81.6789 245° Southwest 364 419 40,000  Level Atlanta Center
03:22PM 36.6778 -81.7869 235° Southwest 376 433 40,000  Level Atlanta Center
03:23PM 36.6214 -81.8972 238° Southwest 384 442 40,000  Level Atlanta Center
03:24PM 36.5606 -82.0022 234° Southwest 384 442 40,000  Level Atlanta Center
03:25PM 36.4978 -82.1172 236° Southwest 384 442 40,000  Level Atlanta Center
03:26PM 36.4389 -82.2219 235° Southwest 379 436 40,000  Level Atlanta Center
03:27PM 36.3800 -82.3264 235° Southwest 374 430 40,000  Level Atlanta Center
03:28PM 36.3211 -82.4333 236° Southwest 374 430 40,000  Level Atlanta Center
03:29PM 36.2639 -82.5375 236° Southwest 380 437 40,000  Level Atlanta Center
03:30PM 36.2067 -82.6414 236° Southwest 375 432 40,000  Level Atlanta Center
03:31PM 36.1475 -82.7453 235° Southwest 375 432 40,000  Level Atlanta Center
03:32PM 36.0881 -82.8492 235° Southwest 381 438 40,000  Level Atlanta Center
03:33PM 36.0306 -82.9528 236° Southwest 381 438 40,000  Level Atlanta Center
03:34PM 35.9731 -83.0533 235° Southwest 374 430 40,000  Level Atlanta Center
03:35PM 35.9153 -83.1592 236° Southwest 374 430 40,000  Level Atlanta Center
03:36PM 35.8617 -83.2494 234° Southwest 374 430 40,000  Level Atlanta Center
03:37PM 35.8061 -83.3525 236° Southwest 374 430 40,000  Level Atlanta Center
03:38PM 35.7481 -83.4528 235° Southwest 374 430 40,000  Level Atlanta Center
03:39PM 35.6903 -83.5503 234° Southwest 368 423 40,000  Level Atlanta Center
03:40PM 35.6322 -83.6531 235° Southwest 368 423 40,000  Level Atlanta Center
03:41PM 35.5739 -83.7503 234° Southwest 363 418 40,000  Level Atlanta Center
03:42PM 35.5178 -83.8550 237° Southwest 363 418 40,000  Level Atlanta Center
03:43PM 35.4594 -83.9519 234° Southwest 363 418 40,000  Level Atlanta Center
03:44PM 35.4011 -84.0514 234° Southwest 363 418 40,000  Level Atlanta Center
03:45PM 35.3447 -84.1508 235° Southwest 363 418 40,000  Level Atlanta Center
03:46PM 35.2861 -84.2475 233° Southwest 363 418 40,000  Level Atlanta Center
03:47PM 35.2297 -84.3464 235° Southwest 363 418 40,000  Level Atlanta Center
03:48PM 35.1711 -84.4453 234° Southwest 363 418 40,000  Level Atlanta Center
03:49PM 35.1142 -84.5414 234° Southwest 363 418 40,000  Level Atlanta Center
03:50PM 35.0556 -84.6400 234° Southwest 363 418 40,000  Level Atlanta Center
03:51PM 34.9964 -84.7386 234° Southwest 363 418 40,000  Level Atlanta Center
03:52PM 34.9353 -84.8419 234° Southwest 363 418 40,000  Level Atlanta Center
03:53PM 34.8761 -84.9400 234° Southwest 363 418 40,000  Level Atlanta Center
03:54PM 34.8192 -85.0356 234° Southwest 363 418 40,000  Level Atlanta Center
03:55PM 34.7600 -85.1311 233° Southwest 363 418 40,000  Level Atlanta Center
03:56PM 34.7028 -85.2289 235° Southwest 363 418 40,000  Level Atlanta Center
03:57PM 34.6475 -85.3239 235° Southwest 358 412 40,000  Level Atlanta Center
03:58PM 34.5900 -85.4189 234° Southwest 358 412 40,000  Level Atlanta Center
03:59PM 34.5328 -85.5089 232° Southwest 358 412 40,000  Level Atlanta Center
04:00PM 34.4772 -85.6011 234° Southwest 353 406 40,000  Level Atlanta Center
04:01PM 34.4219 -85.6908 233° Southwest 347 399 40,000  Level Atlanta Center
04:02PM 34.3683 -85.7803 234° Southwest 342 394 40,000  Level Atlanta Center
04:03PM 34.3150 -85.8647 233° Southwest 329 379 40,000  Level Atlanta Center
04:04PM 34.2617 -85.9514 233° Southwest 329 379 40,000  Level Atlanta Center
04:05PM 34.2081 -86.0383 233° Southwest 329 379 40,000  Level Atlanta Center
04:06PM 34.1544 -86.1247 233° Southwest 329 379 40,000  Level Atlanta Center
04:07PM 34.1008 -86.2114 233° Southwest 335 386 40,000  Level Atlanta Center
04:08PM 34.0469 -86.2978 233° Southwest 335 386 40,000  Level Atlanta Center
04:09PM 33.9931 -86.3839 233° Southwest 335 386 40,000  Level Atlanta Center
04:10PM 33.9414 -86.4675 233° Southwest 335 386 40,000  Level Atlanta Center
04:11PM 33.8856 -86.5536 232° Southwest 335 386 40,000  Level Atlanta Center
04:12PM 33.8314 -86.6397 233° Southwest 335 386 40,000  Level Atlanta Center
04:13PM 33.7775 -86.7256 233° Southwest 335 386 40,000  Level Atlanta Center
04:14PM 33.7233 -86.8111 233° Southwest 335 386 40,000  Level Atlanta Center
04:15PM 33.6714 -86.8992 235° Southwest 335 386 40,000  Level Atlanta Center
04:16PM 33.6356 -86.9953 246° West 327 376 40,000  Level Atlanta Center
04:17PM 33.6019 -87.0942 248° West 322 371 40,000  Level Atlanta Center
04:18PM 33.5681 -87.1925 248° West 322 371 40,000  Level Atlanta Center
04:19PM 33.5342 -87.2911 248° West 322 371 40,000  Level Atlanta Center
04:20PM 33.4908 -87.4181 248° West 329 379 40,000  Level Memphis Center
04:21PM 33.4578 -87.5186 249° West 329 379 40,000  Level Memphis Center
04:22PM 33.4222 -87.6169 247° West 329 379 40,000  Level Memphis Center
04:23PM 33.3892 -87.7175 249° West 329 379 40,000  Level Memphis Center
04:24PM 33.3536 -87.8156 247° West 329 379 40,000  Level Memphis Center
04:25PM 33.3178 -87.9136 246° West 329 379 40,000  Level Memphis Center
04:26PM 33.2844 -88.0139 248° West 329 379 40,000  Level Memphis Center
04:27PM 33.2506 -88.1117 248° West 329 379 40,000  Level Memphis Center
04:28PM 33.2147 -88.2094 246° West 329 379 40,000  Level Memphis Center
04:29PM 33.1833 -88.3144 250° West 334 384 40,000  Level Memphis Center
04:30PM 33.1492 -88.4119 247° West 334 384 40,000  Level Memphis Center
04:31PM 33.1153 -88.5119 248° West 334 384 40,000  Level Memphis Center
04:32PM 33.0769 -88.6094 245° Southwest 334 384 40,000  Level Memphis Center
04:33PM 33.0408 -88.7117 247° West 334 384 40,000  Level Memphis Center
04:34PM 33.0047 -88.8089 246° West 334 384 40,000  Level Memphis Center
04:35PM 32.9703 -88.9111 248° West 334 384 40,000  Level Memphis Center
04:36PM 32.9319 -89.0133 246° West 339 390 40,000  Level Memphis Center
04:37PM 32.8953 -89.1128 246° West 339 390 40,000  Level Memphis Center
04:38PM 32.8586 -89.2147 247° West 339 390 40,000  Level Memphis Center
04:39PM 32.8219 -89.3167 247° West 339 390 40,000  Level Memphis Center
04:40PM 32.7853 -89.4183 247° West 339 390 40,000  Level Memphis Center
04:41PM 32.7464 -89.5200 246° West 339 390 40,000  Level Memphis Center
04:42PM 32.7072 -89.6217 245° Southwest 339 390 40,000  Level Memphis Center
04:43PM 32.6703 -89.7231 247° West 339 390 40,000  Level Memphis Center
04:44PM 32.6333 -89.8269 247° West 339 390 40,000  Level Memphis Center
04:45PM 32.5961 -89.9308 247° West 339 390 40,000  Level Memphis Center
04:46PM 32.5567 -90.0344 246° West 339 390 40,000  Level Memphis Center
04:47PM 32.5172 -90.1356 245° Southwest 339 390 40,000  Level Memphis Center
04:48PM 32.4714 -90.2342 241° Southwest 339 390 40,000  Level Memphis Center
04:49PM 32.4214 -90.3303 238° Southwest 345 397 40,000  Level Memphis Center
04:50PM 32.3692 -90.4286 238° Southwest 350 403 40,000  Level Memphis Center
04:53PM 32.2492 -90.6608 239° Southwest 352 405 40,000  Level Houston Center
04:54PM 32.1869 -90.7783 238° Southwest 354 407 40,000  Level Houston Center
04:55PM 32.1411 -90.8681 239° Southwest 352 405 40,000  Level Houston Center
04:56PM 32.0783 -90.9853 238° Southwest 352 405 40,000  Level Houston Center
04:57PM 32.0261 -91.0836 238° Southwest 355 409 40,000  Level Houston Center
04:58PM 31.9728 -91.1822 237° Southwest 356 410 40,000  Level Houston Center
04:59PM 31.9206 -91.2803 238° Southwest 354 407 40,000  Level Houston Center
05:00PM 31.8672 -91.3778 237° Southwest 353 406 40,000  Level Houston Center
05:01PM 31.8156 -91.4761 238° Southwest 353 406 40,000  Level Houston Center
05:02PM 31.7539 -91.5936 238° Southwest 354 407 40,000  Level Houston Center
05:03PM 31.7128 -91.6978 245° Southwest 352 405 40,000  Level Houston Center
05:04PM 31.6708 -91.8017 245° Southwest 353 406 40,000  Level Houston Center
05:05PM 31.6269 -91.9056 244° Southwest 355 409 40,000  Level Houston Center
05:06PM 31.5831 -92.0086 243° Southwest 355 409 40,000  Level Houston Center
05:07PM 31.5344 -92.1225 243° Southwest 359 413 40,000  Level Houston Center
05:08PM 31.4894 -92.2256 243° Southwest 359 413 40,000  Level Houston Center
05:09PM 31.4456 -92.3331 244° Southwest 366 421 40,000  Level Houston Center
05:10PM 31.3914 -92.4594 243° Southwest 363 418 40,000  Level Houston Center
05:11PM 31.3464 -92.5636 243° Southwest 362 417 40,000  Level Houston Center
05:12PM 31.3019 -92.6681 244° Southwest 361 415 40,000  Level Houston Center
05:13PM 31.2592 -92.7731 245° Southwest 360 414 40,000  Level Houston Center
05:14PM 31.2156 -92.8753 244° Southwest 354 407 40,000  Level Houston Center
05:15PM 31.1711 -92.9772 243° Southwest 353 406 40,000  Level Houston Center
05:17PM 31.1183 -93.0986 243° Southwest 353 406 40,000 -180 Level Houston Center
05:18PM 31.0664 -93.1967 238° Southwest 361 415 39,700 -780 Descending Houston Center
05:19PM 30.9856 -93.2689 217° Southwest 370 426 38,400 -1,260 Descending Houston Center
05:20PM 30.9097 -93.3422 220° Southwest 359 413 37,100 -1,260 Descending Houston Center
05:21PM 30.8331 -93.4139 219° Southwest 355 409 35,800 -1,860 Descending Houston Center
05:22PM 30.7453 -93.5014 221° Southwest 349 402 33,300 -2,400 Descending Houston Center
05:23PM 30.7089 -93.6128 249° West 371 427 30,900 -2,040 Descending Houston Center
05:24PM 30.6708 -93.7278 249° West 384 442 29,100 -1,800 Descending Houston Center
05:25PM 30.6319 -93.8431 249° West 387 445 27,200 -2,040 Descending Houston Center
05:26PM 30.5800 -93.9983 249° West 386 444 24,600 -2,040 Descending Houston Center
05:27PM 30.5483 -94.0936 249° West 378 435 23,000 -1,740 Descending Houston Center
05:28PM 30.5119 -94.2033 249° West 369 425 21,400 -1,620 Descending Houston Center
05:29PM 30.4647 -94.3392 248° West 379 436 19,500 -1,560 Descending Houston Center
05:30PM 30.4372 -94.4300 251° West 376 433 18,200 -1,440 Descending Houston Center
05:31PM 30.3997 -94.5350 248° West 370 426 16,800 -1,620 Descending Houston Center
05:32PM 30.3575 -94.6619 249° West 358 412 14,900 -1,680 Descending Houston Center
05:33PM 30.3217 -94.7681 249° West 355 409 13,400 -1,440 Descending Houston Center
05:34PM 30.2758 -94.8569 239° Southwest 329 379 11,900 -1,500 Descending Houston Center
05:35PM 30.2200 -94.9425 233° Southwest 331 381 10,400 -960 Descending Houston Center
05:36PM 30.1661 -95.0269 234° Southwest 330 380 10,000 -240 Descending Houston Center
05:37PM 30.0797 -95.0944 214° Southwest 320 368 10,000  Level Houston Center
05:38PM 30.0028 -95.1286 201° Southwest 240 276 10,000  Level Houston Center
05:39PM 29.9544 -95.1492 200° South 235 270 10,000 -600 Level Houston Center
05:40PM 29.8942 -95.1747 200° South 232 267 8,900 -960 Descending Houston Center
05:41PM 29.8208 -95.2064 201° Southwest 219 252 8,000 -480 Descending Houston Center
05:42PM 29.7581 -95.2308 199° South 232 267 8,000 -360 Level Houston Center
05:43PM 29.7019 -95.2322 181° South 230 265 7,300 -900 Descending Houston Center
05:44PM 29.6417 -95.2372 184° South 225 259 6,200 -660 Descending Houston Center
05:45PM 29.5794 -95.2386 181° South 229 264 6,000 -120 Descending Houston Center
05:46PM 29.5275 -95.2697 208° Southwest 226 260 6,000 -300 Level Houston Center
05:48PM 29.4744 -95.3350 227° Southwest 232 267 5,400 -900 Descending Houston Center
05:49PM 29.4500 -95.3978 246° West 211 243 4,200 -1,080 Descending Houston Center
05:50PM 29.4853 -95.4400 314° West 208 239 3,200 -660 Descending Houston Center
05:51PM 29.5306 -95.4050 34° Northeast 192 221 2,900 -660 Descending Houston Center
05:51PM 29.5667 -95.3647 44° Northeast 193 222 2,000 -960 Descending Houston Center
05:53PM 29.6069 -95.3214 43° Northeast 184 212 1,000 -840 Descending Houston Center
05:54PM 29.6297 -95.2947 45° Northeast 125 144 400 -420 Descending Houston Center
05:55PM 29.6547 -95.2697 41° Northeast 127 146 200 -180 Descending Houston Center